Time;durP1;ratioP1;P1;durP2;ratioP2;P2;SDS_P1;SDS_P2;PMS_P1;PMS_P2;Temp;Humidity;BMP_temperature;BMP_pressure;BME280_temperature;BME280_humidity;BME280_pressure;Samples;Min_cycle;Max_cycle;Signal;HPM_P1;HPM_P2
2024/03/06 00:00:18;;;;;;;;;;;14.00;46.30;;;;;;5076954;28;19928;-66
2024/03/06 00:02:46;;;;;;;;;;;14.10;46.40;;;;;;5079934;28;19932;-68
2024/03/06 00:05:14;;;;;;;;;;;14.00;46.30;;;;;;5082465;28;19940;-66
2024/03/06 00:07:42;;;;;;;;;;;14.00;46.30;;;;;;5062892;28;19924;-64
2024/03/06 00:10:10;;;;;;;;;;;14.00;46.30;;;;;;5089083;28;19984;-66
2024/03/06 00:12:38;;;;;;;;;;;14.00;46.30;;;;;;5078820;28;19967;-67
2024/03/06 00:15:09;;;;;;;;;;;14.00;46.30;;;;;;5082116;28;19975;-65
2024/03/06 00:17:37;;;;;;;;;;;14.00;46.30;;;;;;5079549;28;19928;-68
2024/03/06 00:20:06;;;;;;;;;;;13.90;46.30;;;;;;5083679;28;20322;-67
2024/03/06 00:22:35;;;;;;;;;;;13.90;46.30;;;;;;5072402;28;19928;-67
2024/03/06 00:25:03;;;;;;;;;;;13.80;46.30;;;;;;5086140;28;19924;-69
2024/03/06 00:27:31;;;;;;;;;;;13.70;46.30;;;;;;5076589;28;19924;-68
2024/03/06 00:30:00;;;;;;;;;;;13.60;46.30;;;;;;5062636;28;20024;-66
2024/03/06 00:32:29;;;;;;;;;;;13.50;46.40;;;;;;5078802;28;19966;-67
2024/03/06 00:34:57;;;;;;;;;;;13.50;46.60;;;;;;5079706;28;20286;-66
2024/03/06 00:37:26;;;;;;;;;;;13.30;46.50;;;;;;5073626;28;19964;-67
2024/03/06 00:39:54;;;;;;;;;;;13.20;46.60;;;;;;5076662;28;19928;-65
2024/03/06 00:42:22;;;;;;;;;;;13.10;46.60;;;;;;5077458;28;20025;-67
2024/03/06 00:44:50;;;;;;;;;;;13.10;46.70;;;;;;5086091;28;19968;-66
2024/03/06 00:47:18;;;;;;;;;;;13.10;46.70;;;;;;5077889;28;20390;-66
2024/03/06 00:49:48;;;;;;;;;;;13.00;46.70;;;;;;5084584;28;19928;-66
2024/03/06 00:52:17;;;;;;;;;;;13.00;46.70;;;;;;5079452;28;20504;-66
2024/03/06 00:54:45;;;;;;;;;;;13.10;46.80;;;;;;5084676;28;19937;-67
2024/03/06 00:57:13;;;;;;;;;;;13.10;46.80;;;;;;5074821;27;19955;-64
2024/03/06 00:59:42;;;;;;;;;;;13.10;46.80;;;;;;5071651;28;19928;-66
2024/03/06 01:02:10;;;;;;;;;;;13.00;46.70;;;;;;5080143;28;19928;-67
2024/03/06 01:04:38;;;;;;;;;;;12.90;46.70;;;;;;5079971;28;20015;-65
2024/03/06 01:07:08;;;;;;;;;;;12.90;46.80;;;;;;5081038;28;19924;-65
2024/03/06 01:09:36;;;;;;;;;;;12.80;46.80;;;;;;5073729;28;19931;-66
2024/03/06 01:12:05;;;;;;;;;;;12.80;46.90;;;;;;5082797;28;19931;-66
2024/03/06 01:14:33;;;;;;;;;;;12.90;46.90;;;;;;5080459;28;20468;-65
2024/03/06 01:17:05;;;;;;;;;;;12.90;46.80;;;;;;5079195;28;19928;-66
2024/03/06 01:19:33;;;;;;;;;;;13.00;46.90;;;;;;5075366;28;20828;-68
2024/03/06 01:22:01;;;;;;;;;;;13.00;46.80;;;;;;5080201;28;19935;-65
2024/03/06 01:24:30;;;;;;;;;;;13.00;46.70;;;;;;5080407;28;19946;-66
2024/03/06 01:27:02;;;;;;;;;;;13.10;46.80;;;;;;5078430;28;19943;-66
2024/03/06 01:29:30;;;;;;;;;;;13.10;46.80;;;;;;5068506;28;20281;-66
2024/03/06 01:31:58;;;;;;;;;;;13.10;46.80;;;;;;5079388;28;20393;-65
2024/03/06 01:34:26;;;;;;;;;;;13.10;47.30;;;;;;5083843;28;19928;-65
2024/03/06 01:36:55;;;;;;;;;;;13.10;46.80;;;;;;5077711;28;19928;-66
2024/03/06 01:39:23;;;;;;;;;;;13.10;46.80;;;;;;5070481;28;19970;-66
2024/03/06 01:41:53;;;;;;;;;;;13.00;46.70;;;;;;5082324;28;19949;-68
2024/03/06 01:44:21;;;;;;;;;;;13.00;46.70;;;;;;5081226;28;19927;-68
2024/03/06 01:46:49;;;;;;;;;;;13.00;46.80;;;;;;5077899;28;19927;-66
2024/03/06 01:49:17;;;;;;;;;;;13.00;47.20;;;;;;5072707;28;20541;-66
2024/03/06 01:52:00;;;;;;;;;;;13.00;46.90;;;;;;5079399;28;19931;-66
2024/03/06 01:54:28;;;;;;;;;;;12.90;46.70;;;;;;5076905;28;19936;-67
2024/03/06 01:56:59;;;;;;;;;;;13.00;46.80;;;;;;5075841;28;19935;-67
2024/03/06 01:59:28;;;;;;;;;;;13.00;46.90;;;;;;5068025;28;19935;-67
2024/03/06 02:02:04;;;;;;;;;;;12.90;46.80;;;;;;5080485;28;19934;-65
2024/03/06 02:04:32;;;;;;;;;;;12.90;46.80;;;;;;5067225;28;19928;-66
2024/03/06 02:07:01;;;;;;;;;;;13.00;46.80;;;;;;5079296;28;19935;-67
2024/03/06 02:09:29;;;;;;;;;;;13.00;46.80;;;;;;5070960;28;20332;-67
2024/03/06 02:11:58;;;;;;;;;;;13.10;46.80;;;;;;5069904;28;20282;-66
2024/03/06 02:14:27;;;;;;;;;;;13.10;46.80;;;;;;5077657;28;19928;-65
2024/03/06 02:16:55;;;;;;;;;;;13.10;46.70;;;;;;5058997;28;19924;-69
2024/03/06 02:19:23;;;;;;;;;;;13.10;46.80;;;;;;5070707;28;19985;-66
2024/03/06 02:21:53;;;;;;;;;;;13.10;46.70;;;;;;5078719;28;19935;-65
2024/03/06 02:24:21;;;;;;;;;;;13.00;46.60;;;;;;5073467;28;21532;-65
2024/03/06 02:26:49;;;;;;;;;;;12.90;46.60;;;;;;5079936;28;19932;-66
2024/03/06 02:29:17;;;;;;;;;;;12.80;46.80;;;;;;5076093;28;19927;-65
2024/03/06 02:31:45;;;;;;;;;;;12.80;47.10;;;;;;5076683;28;19932;-65
2024/03/06 02:34:14;;;;;;;;;;;12.80;46.90;;;;;;5079293;28;19980;-64
2024/03/06 02:36:42;;;;;;;;;;;12.80;46.90;;;;;;5079619;28;20331;-66
2024/03/06 02:39:11;;;;;;;;;;;12.70;46.80;;;;;;5084238;28;19932;-66
2024/03/06 02:41:39;;;;;;;;;;;12.70;46.80;;;;;;5083907;28;19955;-65
2024/03/06 02:44:08;;;;;;;;;;;12.70;46.80;;;;;;5085248;28;19931;-66
2024/03/06 02:46:36;;;;;;;;;;;12.70;46.80;;;;;;5077898;28;19962;-65
2024/03/06 02:49:05;;;;;;;;;;;12.60;46.80;;;;;;5082173;28;19974;-66
2024/03/06 02:51:33;;;;;;;;;;;12.60;46.80;;;;;;5078943;28;19934;-65
2024/03/06 02:54:01;;;;;;;;;;;12.60;46.90;;;;;;5071518;28;19928;-66
2024/03/06 02:56:31;;;;;;;;;;;12.60;46.90;;;;;;5079225;28;19931;-65
2024/03/06 02:59:02;;;;;;;;;;;12.50;46.80;;;;;;5084543;28;19927;-65
2024/03/06 03:01:30;;;;;;;;;;;12.50;46.90;;;;;;5070095;28;20027;-66
2024/03/06 03:03:59;;;;;;;;;;;12.50;46.90;;;;;;5084078;28;19954;-66
2024/03/06 03:06:29;;;;;;;;;;;12.50;46.90;;;;;;5085217;28;19935;-66
2024/03/06 03:08:57;;;;;;;;;;;12.50;47.00;;;;;;5083238;28;19928;-64
2024/03/06 03:11:25;;;;;;;;;;;12.50;47.00;;;;;;5074322;28;19935;-66
2024/03/06 03:13:54;;;;;;;;;;;12.50;46.90;;;;;;5081249;28;19935;-66
2024/03/06 03:16:22;;;;;;;;;;;12.50;46.90;;;;;;5070753;28;20024;-65
2024/03/06 03:18:50;;;;;;;;;;;12.50;46.90;;;;;;5078730;28;19928;-67
2024/03/06 03:21:19;;;;;;;;;;;12.50;46.90;;;;;;5082425;27;20033;-66
2024/03/06 03:23:47;;;;;;;;;;;12.50;47.00;;;;;;5082773;28;19928;-64
2024/03/06 03:26:15;;;;;;;;;;;12.50;46.90;;;;;;5077547;28;19932;-66
2024/03/06 03:28:43;;;;;;;;;;;12.50;47.00;;;;;;5072761;28;19932;-66
2024/03/06 03:31:13;;;;;;;;;;;12.50;47.00;;;;;;5084063;28;19931;-67
2024/03/06 03:33:42;;;;;;;;;;;12.50;46.90;;;;;;5079105;28;19927;-66
2024/03/06 03:36:10;;;;;;;;;;;12.60;47.00;;;;;;5086197;28;19932;-66
2024/03/06 03:38:40;;;;;;;;;;;12.50;46.90;;;;;;5080447;28;20398;-67
2024/03/06 03:41:09;;;;;;;;;;;12.50;46.90;;;;;;5077870;28;19996;-66
2024/03/06 03:43:39;;;;;;;;;;;12.50;47.20;;;;;;5075942;28;21305;-65
2024/03/06 03:46:07;;;;;;;;;;;12.50;46.90;;;;;;5087860;28;19932;-65
2024/03/06 03:48:37;;;;;;;;;;;12.50;47.00;;;;;;5081681;28;20029;-66
2024/03/06 03:51:06;;;;;;;;;;;12.50;47.00;;;;;;5092390;28;20231;-64
2024/03/06 03:53:35;;;;;;;;;;;12.50;46.90;;;;;;5074180;28;20019;-64
2024/03/06 03:56:04;;;;;;;;;;;12.50;47.00;;;;;;5085158;28;19985;-66
2024/03/06 03:58:32;;;;;;;;;;;12.50;47.00;;;;;;5073202;28;19994;-66
2024/03/06 04:01:00;;;;;;;;;;;12.50;47.00;;;;;;5067741;27;19931;-65
2024/03/06 04:03:28;;;;;;;;;;;12.60;47.00;;;;;;5076096;28;20340;-66
2024/03/06 04:05:57;;;;;;;;;;;12.60;47.00;;;;;;5082217;28;20013;-67
2024/03/06 04:08:26;;;;;;;;;;;12.60;47.00;;;;;;5065475;28;19927;-66
2024/03/06 04:10:54;;;;;;;;;;;12.60;47.10;;;;;;5086203;28;19956;-68
2024/03/06 04:13:22;;;;;;;;;;;12.60;47.00;;;;;;5075329;28;19939;-68
2024/03/06 04:15:50;;;;;;;;;;;12.60;47.00;;;;;;5085859;28;20052;-64
2024/03/06 04:18:18;;;;;;;;;;;12.60;47.00;;;;;;5072819;28;20387;-67
2024/03/06 04:20:46;;;;;;;;;;;12.60;47.00;;;;;;5068572;27;19927;-69
2024/03/06 04:23:16;;;;;;;;;;;12.60;47.00;;;;;;5078535;28;20459;-65
2024/03/06 04:25:44;;;;;;;;;;;12.60;47.00;;;;;;5082204;28;19977;-65
2024/03/06 04:28:12;;;;;;;;;;;12.70;47.10;;;;;;5083908;28;19935;-65
2024/03/06 04:30:41;;;;;;;;;;;12.70;47.00;;;;;;5080415;28;19924;-64
2024/03/06 04:33:13;;;;;;;;;;;12.70;47.00;;;;;;5079462;28;19928;-65
2024/03/06 04:35:42;;;;;;;;;;;12.70;47.00;;;;;;5075996;28;20113;-65
2024/03/06 04:38:10;;;;;;;;;;;12.70;47.10;;;;;;5080785;28;19927;-66
2024/03/06 04:40:40;;;;;;;;;;;12.70;47.00;;;;;;5071219;28;19936;-64
2024/03/06 04:43:08;;;;;;;;;;;12.70;47.10;;;;;;5088123;28;19969;-64
2024/03/06 04:45:36;;;;;;;;;;;12.80;47.20;;;;;;5069432;28;21082;-64
2024/03/06 04:48:04;;;;;;;;;;;12.80;47.10;;;;;;5065853;28;19943;-66
2024/03/06 04:50:32;;;;;;;;;;;12.80;47.10;;;;;;5081320;28;19928;-65
2024/03/06 04:53:00;;;;;;;;;;;12.90;47.10;;;;;;5075897;28;19936;-66
2024/03/06 04:55:30;;;;;;;;;;;12.90;47.10;;;;;;5068883;28;19934;-65
2024/03/06 04:58:00;;;;;;;;;;;13.00;47.50;;;;;;5080572;28;19932;-65
2024/03/06 05:00:28;;;;;;;;;;;13.00;47.00;;;;;;5079207;28;19940;-66
2024/03/06 05:02:56;;;;;;;;;;;13.00;47.00;;;;;;5077831;28;19932;-65
2024/03/06 05:05:43;;;;;;;;;;;13.00;47.00;;;;;;5070117;28;19927;-64
2024/03/06 05:08:29;;;;;;;;;;;13.00;47.00;;;;;;5080384;28;20175;-66
2024/03/06 05:11:14;;;;;;;;;;;13.00;47.00;;;;;;5079366;28;19923;-64
2024/03/06 05:14:01;;;;;;;;;;;13.00;47.00;;;;;;5082037;28;19935;-67
2024/03/06 05:16:48;;;;;;;;;;;13.00;47.00;;;;;;5079580;28;20278;-66
2024/03/06 05:19:34;;;;;;;;;;;13.00;47.00;;;;;;5073281;28;19927;-65
2024/03/06 05:22:21;;;;;;;;;;;13.00;47.00;;;;;;5081848;27;19928;-65
2024/03/06 05:25:06;;;;;;;;;;;13.00;47.10;;;;;;5082951;28;19932;-65
2024/03/06 05:27:52;;;;;;;;;;;13.00;47.10;;;;;;5079781;28;19941;-66
2024/03/06 05:30:38;;;;;;;;;;;13.00;47.20;;;;;;5085422;28;20004;-66
2024/03/06 05:33:24;;;;;;;;;;;13.00;47.10;;;;;;5075424;28;19939;-65
2024/03/06 05:36:10;;;;;;;;;;;13.00;47.10;;;;;;5081339;28;19932;-66
2024/03/06 05:38:56;;;;;;;;;;;13.00;47.10;;;;;;5083547;28;19928;-66
2024/03/06 05:41:41;;;;;;;;;;;13.00;47.20;;;;;;5079080;28;19939;-65
2024/03/06 05:44:27;;;;;;;;;;;13.10;47.20;;;;;;5060036;28;20334;-66
2024/03/06 05:47:14;;;;;;;;;;;13.10;47.10;;;;;;5081560;28;20309;-64
2024/03/06 05:50:00;;;;;;;;;;;13.10;47.10;;;;;;5084080;28;20038;-65
2024/03/06 05:52:46;;;;;;;;;;;13.10;47.10;;;;;;5084950;28;20279;-65
2024/03/06 05:55:31;;;;;;;;;;;13.10;47.20;;;;;;5077367;28;20004;-66
2024/03/06 05:58:17;;;;;;;;;;;13.10;47.20;;;;;;5074804;28;20054;-66
2024/03/06 06:00:49;;;;;;;;;;;13.10;47.10;;;;;;5079625;28;19935;-67
2024/03/06 06:03:19;;;;;;;;;;;13.10;47.10;;;;;;5071058;28;19940;-66
2024/03/06 06:05:47;;;;;;;;;;;13.10;47.70;;;;;;5076927;28;19928;-59
2024/03/06 06:08:15;;;;;;;;;;;13.10;47.10;;;;;;5077656;28;19932;-59
2024/03/06 06:10:43;;;;;;;;;;;13.20;47.20;;;;;;5079564;28;19928;-58
2024/03/06 06:13:11;;;;;;;;;;;13.20;47.20;;;;;;5079466;28;20506;-60
2024/03/06 06:15:39;;;;;;;;;;;13.20;47.20;;;;;;5072703;28;19940;-59
2024/03/06 06:18:07;;;;;;;;;;;13.30;47.20;;;;;;5083693;28;19931;-59
2024/03/06 06:20:37;;;;;;;;;;;13.30;47.20;;;;;;5082060;27;19939;-59
2024/03/06 06:23:05;;;;;;;;;;;13.30;47.20;;;;;;5086607;28;19927;-59
2024/03/06 06:25:33;;;;;;;;;;;13.30;47.20;;;;;;5077242;28;20337;-62
2024/03/06 06:28:01;;;;;;;;;;;13.40;47.20;;;;;;5076939;28;20302;-59
2024/03/06 06:30:30;;;;;;;;;;;13.40;47.20;;;;;;5084943;27;19928;-60
2024/03/06 06:32:58;;;;;;;;;;;13.40;47.10;;;;;;5077453;28;19931;-61
2024/03/06 06:35:27;;;;;;;;;;;13.40;47.10;;;;;;5070615;28;19943;-64
2024/03/06 06:37:56;;;;;;;;;;;13.40;47.10;;;;;;5081922;28;20499;-63
2024/03/06 06:40:25;;;;;;;;;;;13.30;47.10;;;;;;5086783;28;20674;-61
2024/03/06 06:42:53;;;;;;;;;;;13.30;47.20;;;;;;5080272;28;19932;-62
2024/03/06 06:45:21;;;;;;;;;;;13.30;47.20;;;;;;5075715;27;19940;-65
2024/03/06 06:47:51;;;;;;;;;;;13.30;47.20;;;;;;5079080;28;20619;-61
2024/03/06 06:50:22;;;;;;;;;;;13.30;47.30;;;;;;5066438;28;19924;-66
2024/03/06 06:52:51;;;;;;;;;;;13.30;47.30;;;;;;5079440;28;20203;-63
2024/03/06 06:55:22;;;;;;;;;;;13.30;47.30;;;;;;5080383;28;20262;-60
2024/03/06 06:57:51;;;;;;;;;;;13.20;47.20;;;;;;5082243;28;19928;-63
2024/03/06 07:00:21;;;;;;;;;;;13.20;47.30;;;;;;5086379;28;20042;-63
2024/03/06 07:02:50;;;;;;;;;;;13.10;47.40;;;;;;5064090;28;20421;-60
2024/03/06 07:05:18;;;;;;;;;;;13.00;47.30;;;;;;5075949;28;20131;-62
2024/03/06 07:07:46;;;;;;;;;;;13.00;47.50;;;;;;5082372;28;19974;-61
2024/03/06 07:10:18;;;;;;;;;;;12.90;47.60;;;;;;5085761;28;19931;-61
2024/03/06 07:12:48;;;;;;;;;;;12.90;47.60;;;;;;5083491;28;19938;-60
2024/03/06 07:15:16;;;;;;;;;;;12.80;47.60;;;;;;5079210;28;19942;-61
2024/03/06 07:17:44;;;;;;;;;;;12.80;47.70;;;;;;5081833;28;20417;-61
2024/03/06 07:20:14;;;;;;;;;;;12.80;47.80;;;;;;5084480;28;20327;-61
2024/03/06 07:22:42;;;;;;;;;;;12.80;47.80;;;;;;5082857;27;19928;-62
2024/03/06 07:25:10;;;;;;;;;;;12.80;47.90;;;;;;5079220;28;19924;-62
2024/03/06 07:27:39;;;;;;;;;;;12.80;47.90;;;;;;5074480;28;19935;-60
2024/03/06 07:30:10;;;;;;;;;;;12.80;47.90;;;;;;5091108;28;19973;-62
2024/03/06 07:32:41;;;;;;;;;;;12.80;47.90;;;;;;5070374;28;19950;-61
2024/03/06 07:35:10;;;;;;;;;;;12.70;47.90;;;;;;5080062;28;19935;-60
2024/03/06 07:37:38;;;;;;;;;;;12.70;47.80;;;;;;5072699;27;19928;-60
2024/03/06 07:40:09;;;;;;;;;;;12.70;47.90;;;;;;5085064;28;20032;-59
2024/03/06 07:42:39;;;;;;;;;;;12.70;47.80;;;;;;5081838;28;19932;-59
2024/03/06 07:45:08;;;;;;;;;;;12.70;47.80;;;;;;5080162;28;20000;-60
2024/03/06 07:47:38;;;;;;;;;;;12.70;47.80;;;;;;5072726;28;19928;-63
2024/03/06 07:50:07;;;;;;;;;;;12.70;47.90;;;;;;5084730;28;20030;-64
2024/03/06 07:52:36;;;;;;;;;;;12.60;47.80;;;;;;5084305;28;19928;-59
2024/03/06 07:55:05;;;;;;;;;;;12.60;47.90;;;;;;5083499;28;19965;-62
2024/03/06 07:57:33;;;;;;;;;;;12.70;47.90;;;;;;5071003;28;19919;-60
2024/03/06 08:00:07;;;;;;;;;;;12.60;47.80;;;;;;5084720;28;19928;-60
2024/03/06 08:02:42;;;;;;;;;;;12.60;47.90;;;;;;5083564;28;19950;-66
2024/03/06 08:05:12;;;;;;;;;;;12.60;48.00;;;;;;5087687;28;19946;-58
2024/03/06 08:07:41;;;;;;;;;;;12.60;48.00;;;;;;5081950;28;19932;-62
2024/03/06 08:10:13;;;;;;;;;;;12.70;48.10;;;;;;5083250;28;19928;-61
2024/03/06 08:12:42;;;;;;;;;;;12.70;48.00;;;;;;5078697;28;20531;-60
2024/03/06 08:15:11;;;;;;;;;;;12.70;48.00;;;;;;5085004;28;20041;-60
2024/03/06 08:17:42;;;;;;;;;;;12.60;48.00;;;;;;5084957;28;19960;-62
2024/03/06 08:20:11;;;;;;;;;;;12.70;48.10;;;;;;5082612;28;19946;-59
2024/03/06 08:22:40;;;;;;;;;;;12.70;48.10;;;;;;5095757;27;20559;-63
2024/03/06 08:25:09;;;;;;;;;;;12.70;48.10;;;;;;5081965;28;20061;-59
2024/03/06 08:27:38;;;;;;;;;;;12.80;48.20;;;;;;5075541;28;20421;-60
2024/03/06 08:30:06;;;;;;;;;;;12.80;48.00;;;;;;5073980;28;19928;-59
2024/03/06 08:32:35;;;;;;;;;;;12.90;48.00;;;;;;5079533;28;19935;-61
2024/03/06 08:35:06;;;;;;;;;;;12.90;47.90;;;;;;5082527;28;19924;-60
2024/03/06 08:37:35;;;;;;;;;;;12.90;47.90;;;;;;5083403;28;19988;-60
2024/03/06 08:40:03;;;;;;;;;;;13.00;47.80;;;;;;5083839;28;20282;-62
2024/03/06 08:42:32;;;;;;;;;;;13.00;47.80;;;;;;5082934;28;19931;-61
2024/03/06 08:45:00;;;;;;;;;;;13.00;47.80;;;;;;5087456;28;20298;-61
2024/03/06 08:47:28;;;;;;;;;;;13.10;47.80;;;;;;5075350;28;20039;-61
2024/03/06 08:49:56;;;;;;;;;;;13.10;48.00;;;;;;5076970;28;19928;-60
2024/03/06 08:52:26;;;;;;;;;;;13.20;47.70;;;;;;5087267;28;19938;-60
2024/03/06 08:54:54;;;;;;;;;;;13.20;47.60;;;;;;5070754;28;20432;-61
2024/03/06 08:57:23;;;;;;;;;;;13.30;47.60;;;;;;5071718;28;19928;-60
2024/03/06 08:59:51;;;;;;;;;;;13.30;47.50;;;;;;5080564;28;20001;-59
2024/03/06 09:02:21;;;;;;;;;;;13.40;47.50;;;;;;5078455;28;19935;-60
2024/03/06 09:04:51;;;;;;;;;;;13.30;47.40;;;;;;5079139;28;20494;-60
2024/03/06 09:07:23;;;;;;;;;;;13.40;47.50;;;;;;5080365;28;19928;-60
2024/03/06 09:09:52;;;;;;;;;;;13.40;47.50;;;;;;5081771;28;19931;-60
2024/03/06 09:12:21;;;;;;;;;;;13.40;47.40;;;;;;5081414;28;19924;-62
2024/03/06 09:14:49;;;;;;;;;;;13.40;47.30;;;;;;5078996;28;20043;-60
2024/03/06 09:17:17;;;;;;;;;;;13.50;47.40;;;;;;5063478;28;19935;-61
2024/03/06 09:19:45;;;;;;;;;;;13.50;47.30;;;;;;5084323;28;19974;-60
2024/03/06 09:22:31;;;;;;;;;;;13.50;47.90;;;;;;5086137;27;19930;-60
2024/03/06 09:25:00;;;;;;;;;;;13.40;47.30;;;;;;5091110;28;19927;-61
2024/03/06 09:27:28;;;;;;;;;;;13.40;47.30;;;;;;5075481;28;19954;-61
2024/03/06 09:29:56;;;;;;;;;;;13.40;47.30;;;;;;5081883;28;20285;-60
2024/03/06 09:32:26;;;;;;;;;;;13.30;47.30;;;;;;5080394;28;19972;-60
2024/03/06 09:34:54;;;;;;;;;;;13.30;47.40;;;;;;5081442;28;20707;-61
2024/03/06 09:37:22;;;;;;;;;;;13.40;47.40;;;;;;5073438;28;19928;-60
2024/03/06 09:39:50;;;;;;;;;;;13.30;47.50;;;;;;5082385;28;19934;-60
2024/03/06 09:42:20;;;;;;;;;;;13.30;47.40;;;;;;5078957;28;20446;-60
2024/03/06 09:44:48;;;;;;;;;;;13.30;48.10;;;;;;5081250;28;20480;-59
2024/03/06 09:47:21;;;;;;;;;;;13.30;48.10;;;;;;5072546;28;20387;-59
2024/03/06 09:49:49;;;;;;;;;;;13.30;47.50;;;;;;5083363;28;19951;-60
2024/03/06 09:52:17;;;;;;;;;;;13.30;47.50;;;;;;5067540;28;20536;-60
2024/03/06 09:54:45;;;;;;;;;;;13.40;47.50;;;;;;5085227;27;19950;-59
2024/03/06 09:57:16;;;;;;;;;;;13.40;47.50;;;;;;5064223;28;21011;-61
2024/03/06 09:59:46;;;;;;;;;;;13.40;47.50;;;;;;5089234;28;19956;-61
2024/03/06 10:02:20;;;;;;;;;;;13.40;47.50;;;;;;5079643;28;19938;-60
2024/03/06 10:04:48;;;;;;;;;;;13.40;47.50;;;;;;5083450;28;19934;-61
2024/03/06 10:07:18;;;;;;;;;;;13.40;47.50;;;;;;5077419;28;19928;-59
2024/03/06 10:09:48;;;;;;;;;;;13.50;47.60;;;;;;5083559;28;19928;-61
2024/03/06 10:12:18;;;;;;;;;;;13.50;47.60;;;;;;5079657;28;19928;-60
2024/03/06 10:14:54;;;;;;;;;;;13.40;47.40;;;;;;5081778;28;19934;-62
2024/03/06 10:17:23;;;;;;;;;;;13.50;47.50;;;;;;5075294;28;20381;-60
2024/03/06 10:19:52;;;;;;;;;;;13.40;47.50;;;;;;5078928;28;20695;-60
2024/03/06 10:22:20;;;;;;;;;;;13.40;47.40;;;;;;5079932;28;20394;-60
2024/03/06 10:24:48;;;;;;;;;;;13.40;47.50;;;;;;5085246;28;20015;-60
2024/03/06 10:27:18;;;;;;;;;;;13.50;47.50;;;;;;5067933;28;19931;-60
2024/03/06 10:29:46;;;;;;;;;;;13.50;47.40;;;;;;5077636;28;20524;-60
2024/03/06 10:32:21;;;;;;;;;;;13.40;47.40;;;;;;5083068;28;19932;-61
2024/03/06 10:34:49;;;;;;;;;;;13.40;47.40;;;;;;5077914;28;19939;-61
2024/03/06 10:37:17;;;;;;;;;;;13.40;47.40;;;;;;5073644;28;19981;-64
2024/03/06 10:39:47;;;;;;;;;;;13.40;47.50;;;;;;5084221;28;19939;-60
2024/03/06 10:42:15;;;;;;;;;;;13.40;47.40;;;;;;5077969;28;20302;-61
2024/03/06 10:44:49;;;;;;;;;;;13.30;47.50;;;;;;5079317;28;20082;-60
2024/03/06 10:47:19;;;;;;;;;;;13.30;47.50;;;;;;5079790;28;20386;-60
2024/03/06 10:49:48;;;;;;;;;;;13.30;47.60;;;;;;5075012;28;19980;-61
2024/03/06 10:52:16;;;;;;;;;;;13.30;47.60;;;;;;5082775;28;19974;-63
2024/03/06 10:54:46;;;;;;;;;;;13.30;47.60;;;;;;5087953;28;19924;-61
2024/03/06 10:57:14;;;;;;;;;;;13.30;47.60;;;;;;5080100;28;19932;-60
2024/03/06 10:59:43;;;;;;;;;;;13.30;47.60;;;;;;5075862;28;19924;-60
2024/03/06 11:02:12;;;;;;;;;;;13.30;47.60;;;;;;5069172;28;21113;-61
2024/03/06 11:04:42;;;;;;;;;;;13.20;47.50;;;;;;5086196;28;20350;-59
2024/03/06 11:07:10;;;;;;;;;;;13.10;47.60;;;;;;5085344;28;19935;-61
2024/03/06 11:09:42;;;;;;;;;;;13.10;47.70;;;;;;5083623;28;19928;-61
2024/03/06 11:12:10;;;;;;;;;;;13.00;47.70;;;;;;5086957;28;19935;-60
2024/03/06 11:14:39;;;;;;;;;;;13.00;47.70;;;;;;5088842;28;19939;-60
2024/03/06 11:17:09;;;;;;;;;;;12.90;47.80;;;;;;5064267;28;19927;-60
2024/03/06 11:19:52;;;;;;;;;;;12.80;47.80;;;;;;5079814;28;20839;-59
2024/03/06 11:22:48;;;;;;;;;;;12.80;48.00;;;;;;5084122;28;19927;-61
2024/03/06 11:25:30;;;;;;;;;;;12.70;48.00;;;;;;5080466;28;20378;-59
2024/03/06 11:28:05;;;;;;;;;;;12.60;48.00;;;;;;5075757;28;20039;-63
2024/03/06 11:30:33;;;;;;;;;;;12.60;48.10;;;;;;5081145;28;19928;-61
2024/03/06 11:33:01;;;;;;;;;;;12.60;48.10;;;;;;5080801;28;20008;-61
2024/03/06 11:35:30;;;;;;;;;;;12.50;48.10;;;;;;5081523;28;19928;-61
2024/03/06 11:38:01;;;;;;;;;;;12.50;48.10;;;;;;5086172;28;19924;-60
2024/03/06 11:40:30;;;;;;;;;;;12.50;48.20;;;;;;5077269;28;19938;-61
2024/03/06 11:42:58;;;;;;;;;;;12.40;48.20;;;;;;5077944;28;19935;-61
2024/03/06 11:45:26;;;;;;;;;;;12.40;48.20;;;;;;5074292;28;19939;-60
2024/03/06 11:47:57;;;;;;;;;;;12.30;48.30;;;;;;5081150;28;20377;-61
2024/03/06 11:50:27;;;;;;;;;;;12.30;48.30;;;;;;5081852;28;20400;-61
2024/03/06 11:52:57;;;;;;;;;;;12.20;48.30;;;;;;5078406;28;19928;-60
2024/03/06 11:55:26;;;;;;;;;;;12.20;48.40;;;;;;5072886;28;19924;-60
2024/03/06 11:57:54;;;;;;;;;;;12.20;48.40;;;;;;5080240;27;19928;-60
2024/03/06 12:00:22;;;;;;;;;;;12.10;48.40;;;;;;5080035;27;19935;-61
2024/03/06 12:02:51;;;;;;;;;;;12.10;48.50;;;;;;5080907;28;20039;-61
2024/03/06 12:05:19;;;;;;;;;;;12.10;48.40;;;;;;5079818;27;19971;-61
2024/03/06 12:07:48;;;;;;;;;;;12.20;48.50;;;;;;5078518;28;19924;-62
2024/03/06 12:10:17;;;;;;;;;;;12.20;48.40;;;;;;5064020;28;19932;-60
2024/03/06 12:12:46;;;;;;;;;;;12.30;48.40;;;;;;5079177;28;19951;-64
2024/03/06 12:15:17;;;;;;;;;;;12.30;48.30;;;;;;5077943;28;20005;-61
2024/03/06 12:17:46;;;;;;;;;;;12.30;48.40;;;;;;5081813;28;20023;-63
2024/03/06 12:20:15;;;;;;;;;;;12.40;48.40;;;;;;5085515;28;19932;-61
2024/03/06 12:22:44;;;;;;;;;;;12.50;48.20;;;;;;5079283;28;19924;-61
2024/03/06 12:25:20;;;;;;;;;;;12.60;48.30;;;;;;5075858;27;21581;-60
2024/03/06 12:27:50;;;;;;;;;;;12.60;48.10;;;;;;5076832;28;19939;-60
2024/03/06 12:30:19;;;;;;;;;;;12.70;48.10;;;;;;5080508;28;19932;-60
2024/03/06 12:32:57;;;;;;;;;;;12.70;48.10;;;;;;5081624;28;20457;-60
2024/03/06 12:35:26;;;;;;;;;;;12.80;48.10;;;;;;5072199;28;19935;-60
2024/03/06 12:37:55;;;;;;;;;;;12.90;48.00;;;;;;5061006;28;20558;-60
2024/03/06 12:40:24;;;;;;;;;;;12.90;48.00;;;;;;5075907;28;19928;-60
2024/03/06 12:42:53;;;;;;;;;;;13.00;48.00;;;;;;5076405;28;20449;-60
2024/03/06 12:45:21;;;;;;;;;;;13.10;47.90;;;;;;5050857;28;20310;-60
2024/03/06 12:47:50;;;;;;;;;;;13.10;47.80;;;;;;5076089;28;19932;-60
2024/03/06 12:50:19;;;;;;;;;;;13.20;47.90;;;;;;5075874;28;19932;-60
2024/03/06 12:52:47;;;;;;;;;;;13.20;47.80;;;;;;5073025;28;19935;-60
2024/03/06 12:55:15;;;;;;;;;;;13.30;47.80;;;;;;5075220;28;19928;-60
2024/03/06 12:57:43;;;;;;;;;;;13.30;47.80;;;;;;5071895;28;19928;-60
2024/03/06 13:00:15;;;;;;;;;;;13.40;47.80;;;;;;5072584;28;20297;-60
2024/03/06 13:02:44;;;;;;;;;;;13.40;47.60;;;;;;5077498;28;19935;-60
2024/03/06 13:05:13;;;;;;;;;;;13.40;47.60;;;;;;5079534;28;19934;-61
2024/03/06 13:07:43;;;;;;;;;;;13.40;47.60;;;;;;5075286;28;20037;-63
2024/03/06 13:10:11;;;;;;;;;;;13.30;47.70;;;;;;5084755;28;20473;-61
2024/03/06 13:12:40;;;;;;;;;;;13.30;47.70;;;;;;5072843;28;20451;-60
2024/03/06 13:15:08;;;;;;;;;;;13.20;47.70;;;;;;5079439;28;20502;-61
2024/03/06 13:17:39;;;;;;;;;;;13.20;47.80;;;;;;5075325;28;20120;-60
2024/03/06 13:20:09;;;;;;;;;;;13.20;48.10;;;;;;5081969;28;19934;-61
2024/03/06 13:22:40;;;;;;;;;;;13.30;48.00;;;;;;5075293;28;19989;-62
2024/03/06 13:25:08;;;;;;;;;;;13.40;48.00;;;;;;5060953;28;19928;-64
2024/03/06 13:27:37;;;;;;;;;;;13.40;47.90;;;;;;5067093;28;19928;-62
2024/03/06 13:30:07;;;;;;;;;;;13.40;47.80;;;;;;5064510;28;19984;-62
2024/03/06 13:32:37;;;;;;;;;;;13.50;47.80;;;;;;5067560;28;20076;-64
2024/03/06 13:35:09;;;;;;;;;;;13.50;47.70;;;;;;5072783;28;19989;-62
2024/03/06 13:37:37;;;;;;;;;;;13.50;47.70;;;;;;5065192;28;19942;-62
2024/03/06 13:40:07;;;;;;;;;;;13.50;47.70;;;;;;5078081;28;20247;-62
2024/03/06 13:42:35;;;;;;;;;;;13.60;47.70;;;;;;5074505;28;19927;-62
2024/03/06 13:45:03;;;;;;;;;;;13.60;47.70;;;;;;5074160;28;19939;-61
2024/03/06 13:47:32;;;;;;;;;;;13.50;47.70;;;;;;5073738;28;19928;-61
2024/03/06 13:50:01;;;;;;;;;;;13.50;47.70;;;;;;5081950;28;19932;-64
2024/03/06 13:52:29;;;;;;;;;;;13.60;47.70;;;;;;5075503;28;19936;-62
2024/03/06 13:54:57;;;;;;;;;;;13.60;47.70;;;;;;5060081;28;20009;-64
2024/03/06 13:57:26;;;;;;;;;;;13.60;47.70;;;;;;5069488;28;19928;-62
2024/03/06 13:59:54;;;;;;;;;;;13.60;47.70;;;;;;5079626;28;19928;-63
2024/03/06 14:02:22;;;;;;;;;;;13.70;47.70;;;;;;5077367;28;19928;-61
2024/03/06 14:04:50;;;;;;;;;;;13.70;47.70;;;;;;5076999;28;20365;-61
2024/03/06 14:07:19;;;;;;;;;;;13.70;47.70;;;;;;5072413;28;19939;-61
2024/03/06 14:09:48;;;;;;;;;;;13.70;47.60;;;;;;5086696;28;19932;-60
2024/03/06 14:12:16;;;;;;;;;;;13.70;47.60;;;;;;5081570;28;19935;-61
2024/03/06 14:14:45;;;;;;;;;;;13.70;47.70;;;;;;5067183;28;19928;-61
2024/03/06 14:17:14;;;;;;;;;;;13.70;47.70;;;;;;5078222;28;20446;-60
2024/03/06 14:20:12;;;;;;;;;;;13.70;47.60;;;;;;5081779;28;19939;-60
2024/03/06 14:22:42;;;;;;;;;;;13.70;47.70;;;;;;5085851;28;19958;-61
2024/03/06 14:25:10;;;;;;;;;;;13.70;47.70;;;;;;5080884;28;19936;-61
2024/03/06 14:27:38;;;;;;;;;;;13.60;47.70;;;;;;5078773;28;19966;-62
2024/03/06 14:30:08;;;;;;;;;;;13.70;47.80;;;;;;5060467;28;19935;-62
2024/03/06 14:32:36;;;;;;;;;;;13.70;47.80;;;;;;5086958;27;19932;-61